sensor_id;sensor_type;location;lat;lon;timestamp;P1;durP1;ratioP1;P2;durP2;ratioP2
29202;SDS011;16245;51.170;4.884;2023-03-23T00:01:20;7.55;;;3.58;;
29202;SDS011;16245;51.170;4.884;2023-03-23T00:03:50;5.88;;;4.00;;
29202;SDS011;16245;51.170;4.884;2023-03-23T00:06:17;5.45;;;3.65;;
29202;SDS011;16245;51.170;4.884;2023-03-23T00:08:45;6.60;;;3.88;;
29202;SDS011;16245;51.170;4.884;2023-03-23T00:11:18;5.90;;;3.70;;
29202;SDS011;16245;51.170;4.884;2023-03-23T00:13:46;4.55;;;3.83;;
29202;SDS011;16245;51.170;4.884;2023-03-23T00:16:17;5.07;;;3.25;;
29202;SDS011;16245;51.170;4.884;2023-03-23T00:18:54;4.80;;;3.80;;
29202;SDS011;16245;51.170;4.884;2023-03-23T00:21:20;4.03;;;3.63;;
29202;SDS011;16245;51.170;4.884;2023-03-23T00:23:50;3.88;;;3.25;;
29202;SDS011;16245;51.170;4.884;2023-03-23T00:26:17;4.75;;;3.63;;
29202;SDS011;16245;51.170;4.884;2023-03-23T00:28:43;6.15;;;3.65;;
29202;SDS011;16245;51.170;4.884;2023-03-23T00:31:11;5.20;;;3.70;;
29202;SDS011;16245;51.170;4.884;2023-03-23T00:33:38;5.53;;;3.97;;
29202;SDS011;16245;51.170;4.884;2023-03-23T00:36:06;4.47;;;4.07;;
29202;SDS011;16245;51.170;4.884;2023-03-23T00:38:33;5.32;;;3.30;;
29202;SDS011;16245;51.170;4.884;2023-03-23T00:41:00;6.00;;;3.58;;
29202;SDS011;16245;51.170;4.884;2023-03-23T00:43:27;6.65;;;4.50;;
29202;SDS011;16245;51.170;4.884;2023-03-23T00:45:54;5.68;;;3.97;;
29202;SDS011;16245;51.170;4.884;2023-03-23T00:48:21;5.43;;;3.42;;
29202;SDS011;16245;51.170;4.884;2023-03-23T00:50:48;5.53;;;3.75;;
29202;SDS011;16245;51.170;4.884;2023-03-23T00:53:15;5.25;;;4.03;;
29202;SDS011;16245;51.170;4.884;2023-03-23T00:55:41;5.70;;;4.18;;
29202;SDS011;16245;51.170;4.884;2023-03-23T00:58:08;3.85;;;3.50;;
29202;SDS011;16245;51.170;4.884;2023-03-23T01:00:34;5.75;;;4.38;;
29202;SDS011;16245;51.170;4.884;2023-03-23T01:03:00;6.32;;;4.20;;
29202;SDS011;16245;51.170;4.884;2023-03-23T01:05:26;9.57;;;4.28;;
29202;SDS011;16245;51.170;4.884;2023-03-23T01:07:57;4.80;;;4.10;;
29202;SDS011;16245;51.170;4.884;2023-03-23T01:10:23;5.70;;;3.40;;
29202;SDS011;16245;51.170;4.884;2023-03-23T01:12:51;6.40;;;3.67;;
29202;SDS011;16245;51.170;4.884;2023-03-23T01:15:18;4.65;;;3.63;;
29202;SDS011;16245;51.170;4.884;2023-03-23T01:17:45;4.78;;;3.72;;
29202;SDS011;16245;51.170;4.884;2023-03-23T01:20:12;6.45;;;4.00;;
29202;SDS011;16245;51.170;4.884;2023-03-23T01:22:39;5.70;;;3.75;;
29202;SDS011;16245;51.170;4.884;2023-03-23T01:25:06;3.78;;;3.40;;
29202;SDS011;16245;51.170;4.884;2023-03-23T01:27:33;4.13;;;3.30;;
29202;SDS011;16245;51.170;4.884;2023-03-23T01:29:59;5.38;;;3.58;;
29202;SDS011;16245;51.170;4.884;2023-03-23T01:32:25;6.22;;;3.97;;
29202;SDS011;16245;51.170;4.884;2023-03-23T01:34:52;7.55;;;4.40;;
29202;SDS011;16245;51.170;4.884;2023-03-23T01:37:17;5.63;;;3.65;;
29202;SDS011;16245;51.170;4.884;2023-03-23T01:39:44;6.13;;;4.00;;
29202;SDS011;16245;51.170;4.884;2023-03-23T01:42:10;4.75;;;3.60;;
29202;SDS011;16245;51.170;4.884;2023-03-23T01:47:02;4.32;;;3.20;;
29202;SDS011;16245;51.170;4.884;2023-03-23T01:49:33;7.13;;;4.03;;
29202;SDS011;16245;51.170;4.884;2023-03-23T01:52:07;5.22;;;3.80;;
29202;SDS011;16245;51.170;4.884;2023-03-23T01:54:42;4.75;;;3.58;;
29202;SDS011;16245;51.170;4.884;2023-03-23T01:57:11;6.13;;;3.83;;
29202;SDS011;16245;51.170;4.884;2023-03-23T01:59:40;4.57;;;3.85;;
29202;SDS011;16245;51.170;4.884;2023-03-23T02:02:12;4.72;;;3.30;;
29202;SDS011;16245;51.170;4.884;2023-03-23T02:04:40;4.97;;;4.10;;
29202;SDS011;16245;51.170;4.884;2023-03-23T02:07:07;5.22;;;3.70;;
29202;SDS011;16245;51.170;4.884;2023-03-23T02:09:34;6.13;;;3.67;;
29202;SDS011;16245;51.170;4.884;2023-03-23T02:12:00;4.13;;;3.78;;
29202;SDS011;16245;51.170;4.884;2023-03-23T02:14:27;3.90;;;3.50;;
29202;SDS011;16245;51.170;4.884;2023-03-23T02:19:44;3.75;;;3.35;;
29202;SDS011;16245;51.170;4.884;2023-03-23T02:28:26;5.20;;;3.60;;
29202;SDS011;16245;51.170;4.884;2023-03-23T02:35:05;3.50;;;3.20;;
29202;SDS011;16245;51.170;4.884;2023-03-23T02:37:06;6.57;;;3.55;;
29202;SDS011;16245;51.170;4.884;2023-03-23T02:39:45;3.60;;;3.00;;
29202;SDS011;16245;51.170;4.884;2023-03-23T02:42:17;4.80;;;3.55;;
29202;SDS011;16245;51.170;4.884;2023-03-23T02:44:48;3.75;;;3.35;;
29202;SDS011;16245;51.170;4.884;2023-03-23T02:47:23;5.45;;;3.55;;
29202;SDS011;16245;51.170;4.884;2023-03-23T02:49:53;4.93;;;3.17;;
29202;SDS011;16245;51.170;4.884;2023-03-23T02:52:39;6.85;;;3.70;;
29202;SDS011;16245;51.170;4.884;2023-03-23T02:55:06;4.55;;;3.28;;
29202;SDS011;16245;51.170;4.884;2023-03-23T02:57:33;4.85;;;2.88;;
29202;SDS011;16245;51.170;4.884;2023-03-23T03:00:00;5.55;;;3.13;;
29202;SDS011;16245;51.170;4.884;2023-03-23T03:02:29;4.50;;;2.65;;
29202;SDS011;16245;51.170;4.884;2023-03-23T03:11:12;5.88;;;2.25;;
29202;SDS011;16245;51.170;4.884;2023-03-23T03:16:36;6.13;;;2.70;;
29202;SDS011;16245;51.170;4.884;2023-03-23T03:21:37;7.40;;;2.58;;
29202;SDS011;16245;51.170;4.884;2023-03-23T03:24:07;5.63;;;2.13;;
29202;SDS011;16245;51.170;4.884;2023-03-23T03:26:36;5.70;;;2.40;;
29202;SDS011;16245;51.170;4.884;2023-03-23T03:29:12;4.72;;;2.05;;
29202;SDS011;16245;51.170;4.884;2023-03-23T03:31:42;3.88;;;1.75;;
29202;SDS011;16245;51.170;4.884;2023-03-23T03:34:11;9.80;;;2.60;;
29202;SDS011;16245;51.170;4.884;2023-03-23T03:36:37;7.65;;;2.20;;
29202;SDS011;16245;51.170;4.884;2023-03-23T03:39:06;4.97;;;1.88;;
29202;SDS011;16245;51.170;4.884;2023-03-23T03:41:34;4.63;;;1.88;;
29202;SDS011;16245;51.170;4.884;2023-03-23T03:44:01;5.40;;;2.25;;
29202;SDS011;16245;51.170;4.884;2023-03-23T03:46:27;4.15;;;1.70;;
29202;SDS011;16245;51.170;4.884;2023-03-23T03:48:55;4.95;;;1.80;;
29202;SDS011;16245;51.170;4.884;2023-03-23T03:51:22;5.50;;;2.10;;
29202;SDS011;16245;51.170;4.884;2023-03-23T03:53:48;4.38;;;1.45;;
29202;SDS011;16245;51.170;4.884;2023-03-23T03:56:13;7.80;;;1.70;;
29202;SDS011;16245;51.170;4.884;2023-03-23T03:58:39;5.10;;;1.83;;
29202;SDS011;16245;51.170;4.884;2023-03-23T04:01:07;6.68;;;2.13;;
29202;SDS011;16245;51.170;4.884;2023-03-23T04:03:35;5.15;;;1.50;;
29202;SDS011;16245;51.170;4.884;2023-03-23T04:06:01;4.70;;;1.65;;
29202;SDS011;16245;51.170;4.884;2023-03-23T04:08:27;6.60;;;1.60;;
29202;SDS011;16245;51.170;4.884;2023-03-23T04:10:54;5.50;;;1.73;;
29202;SDS011;16245;51.170;4.884;2023-03-23T04:13:20;7.00;;;1.70;;
29202;SDS011;16245;51.170;4.884;2023-03-23T04:15:46;6.55;;;2.13;;
29202;SDS011;16245;51.170;4.884;2023-03-23T04:18:12;3.88;;;1.33;;
29202;SDS011;16245;51.170;4.884;2023-03-23T04:20:41;6.18;;;1.85;;
29202;SDS011;16245;51.170;4.884;2023-03-23T04:23:07;3.78;;;1.50;;
29202;SDS011;16245;51.170;4.884;2023-03-23T04:25:33;6.18;;;2.17;;
29202;SDS011;16245;51.170;4.884;2023-03-23T04:27:59;8.77;;;2.15;;
29202;SDS011;16245;51.170;4.884;2023-03-23T04:30:26;3.60;;;1.52;;
29202;SDS011;16245;51.170;4.884;2023-03-23T04:32:53;4.93;;;1.60;;
29202;SDS011;16245;51.170;4.884;2023-03-23T04:35:21;6.32;;;1.92;;
29202;SDS011;16245;51.170;4.884;2023-03-23T04:37:51;7.28;;;1.83;;
29202;SDS011;16245;51.170;4.884;2023-03-23T04:40:18;8.55;;;2.22;;
29202;SDS011;16245;51.170;4.884;2023-03-23T04:42:44;8.82;;;1.90;;
29202;SDS011;16245;51.170;4.884;2023-03-23T04:45:11;7.65;;;2.47;;
29202;SDS011;16245;51.170;4.884;2023-03-23T04:47:46;9.20;;;2.20;;
29202;SDS011;16245;51.170;4.884;2023-03-23T04:50:18;9.15;;;2.40;;
29202;SDS011;16245;51.170;4.884;2023-03-23T04:52:49;5.30;;;2.10;;
29202;SDS011;16245;51.170;4.884;2023-03-23T04:55:16;8.80;;;2.22;;
29202;SDS011;16245;51.170;4.884;2023-03-23T04:57:44;5.90;;;2.13;;
29202;SDS011;16245;51.170;4.884;2023-03-23T05:00:10;8.98;;;2.42;;
29202;SDS011;16245;51.170;4.884;2023-03-23T05:02:39;6.60;;;1.90;;
29202;SDS011;16245;51.170;4.884;2023-03-23T05:05:09;15.95;;;2.35;;
29202;SDS011;16245;51.170;4.884;2023-03-23T05:07:37;11.15;;;2.40;;
29202;SDS011;16245;51.170;4.884;2023-03-23T05:10:04;12.60;;;2.65;;
29202;SDS011;16245;51.170;4.884;2023-03-23T05:12:31;11.32;;;2.70;;
29202;SDS011;16245;51.170;4.884;2023-03-23T05:14:57;15.55;;;2.83;;
29202;SDS011;16245;51.170;4.884;2023-03-23T05:17:23;17.52;;;3.20;;
29202;SDS011;16245;51.170;4.884;2023-03-23T05:19:51;5.80;;;2.00;;
29202;SDS011;16245;51.170;4.884;2023-03-23T05:22:18;7.20;;;1.88;;
29202;SDS011;16245;51.170;4.884;2023-03-23T05:24:46;10.10;;;2.42;;
29202;SDS011;16245;51.170;4.884;2023-03-23T05:27:12;5.35;;;2.00;;
29202;SDS011;16245;51.170;4.884;2023-03-23T05:29:39;8.05;;;2.17;;
29202;SDS011;16245;51.170;4.884;2023-03-23T05:32:06;8.85;;;2.28;;
29202;SDS011;16245;51.170;4.884;2023-03-23T05:34:33;7.78;;;2.17;;
29202;SDS011;16245;51.170;4.884;2023-03-23T05:37:00;8.07;;;1.88;;
29202;SDS011;16245;51.170;4.884;2023-03-23T05:39:27;10.75;;;2.10;;
29202;SDS011;16245;51.170;4.884;2023-03-23T05:41:54;12.25;;;2.22;;
29202;SDS011;16245;51.170;4.884;2023-03-23T05:44:20;6.75;;;2.10;;
29202;SDS011;16245;51.170;4.884;2023-03-23T05:46:46;10.40;;;2.17;;
29202;SDS011;16245;51.170;4.884;2023-03-23T05:49:12;6.93;;;2.08;;
29202;SDS011;16245;51.170;4.884;2023-03-23T05:51:38;7.93;;;1.88;;
29202;SDS011;16245;51.170;4.884;2023-03-23T05:54:04;10.18;;;1.77;;
29202;SDS011;16245;51.170;4.884;2023-03-23T05:56:30;9.45;;;2.30;;
29202;SDS011;16245;51.170;4.884;2023-03-23T05:58:57;9.90;;;1.85;;
29202;SDS011;16245;51.170;4.884;2023-03-23T06:01:23;7.70;;;2.35;;
29202;SDS011;16245;51.170;4.884;2023-03-23T06:03:50;8.48;;;2.33;;
29202;SDS011;16245;51.170;4.884;2023-03-23T06:06:19;10.40;;;2.00;;
29202;SDS011;16245;51.170;4.884;2023-03-23T06:08:46;5.80;;;1.83;;
29202;SDS011;16245;51.170;4.884;2023-03-23T06:11:13;5.90;;;2.08;;
29202;SDS011;16245;51.170;4.884;2023-03-23T06:13:39;9.57;;;2.80;;
29202;SDS011;16245;51.170;4.884;2023-03-23T06:16:05;5.53;;;1.95;;
29202;SDS011;16245;51.170;4.884;2023-03-23T06:18:31;8.43;;;2.05;;
29202;SDS011;16245;51.170;4.884;2023-03-23T06:20:58;8.00;;;2.38;;
29202;SDS011;16245;51.170;4.884;2023-03-23T06:23:25;5.50;;;1.95;;
29202;SDS011;16245;51.170;4.884;2023-03-23T06:25:58;3.92;;;2.20;;
29202;SDS011;16245;51.170;4.884;2023-03-23T06:28:25;5.18;;;2.47;;
29202;SDS011;16245;51.170;4.884;2023-03-23T06:30:52;8.15;;;2.10;;
29202;SDS011;16245;51.170;4.884;2023-03-23T06:33:17;6.03;;;1.80;;
29202;SDS011;16245;51.170;4.884;2023-03-23T06:35:44;5.40;;;2.60;;
29202;SDS011;16245;51.170;4.884;2023-03-23T06:38:09;6.82;;;1.83;;
29202;SDS011;16245;51.170;4.884;2023-03-23T06:40:36;5.30;;;1.75;;
29202;SDS011;16245;51.170;4.884;2023-03-23T06:43:02;5.22;;;1.95;;
29202;SDS011;16245;51.170;4.884;2023-03-23T06:45:29;4.43;;;1.77;;
29202;SDS011;16245;51.170;4.884;2023-03-23T06:47:57;7.75;;;2.08;;
29202;SDS011;16245;51.170;4.884;2023-03-23T06:50:23;9.80;;;2.03;;
29202;SDS011;16245;51.170;4.884;2023-03-23T06:52:49;8.98;;;2.65;;
29202;SDS011;16245;51.170;4.884;2023-03-23T06:55:16;9.13;;;2.05;;
29202;SDS011;16245;51.170;4.884;2023-03-23T06:57:42;9.15;;;2.92;;
29202;SDS011;16245;51.170;4.884;2023-03-23T07:00:09;6.53;;;2.20;;
29202;SDS011;16245;51.170;4.884;2023-03-23T07:02:38;6.20;;;2.00;;
29202;SDS011;16245;51.170;4.884;2023-03-23T07:05:08;13.40;;;2.70;;
29202;SDS011;16245;51.170;4.884;2023-03-23T07:07:35;8.70;;;3.10;;
29202;SDS011;16245;51.170;4.884;2023-03-23T07:10:02;7.75;;;2.00;;
29202;SDS011;16245;51.170;4.884;2023-03-23T07:12:30;8.40;;;2.28;;
29202;SDS011;16245;51.170;4.884;2023-03-23T07:14:55;5.65;;;1.58;;
29202;SDS011;16245;51.170;4.884;2023-03-23T07:17:21;5.38;;;1.77;;
29202;SDS011;16245;51.170;4.884;2023-03-23T07:19:47;4.53;;;1.23;;
29202;SDS011;16245;51.170;4.884;2023-03-23T07:22:13;3.03;;;1.05;;
29202;SDS011;16245;51.170;4.884;2023-03-23T07:24:39;5.35;;;1.27;;
29202;SDS011;16245;51.170;4.884;2023-03-23T07:27:04;6.00;;;1.60;;
29202;SDS011;16245;51.170;4.884;2023-03-23T07:29:30;5.57;;;1.45;;
29202;SDS011;16245;51.170;4.884;2023-03-23T07:31:59;6.25;;;1.60;;
29202;SDS011;16245;51.170;4.884;2023-03-23T07:34:26;2.58;;;0.98;;
29202;SDS011;16245;51.170;4.884;2023-03-23T07:36:53;4.15;;;1.15;;
29202;SDS011;16245;51.170;4.884;2023-03-23T07:39:18;6.68;;;2.08;;
29202;SDS011;16245;51.170;4.884;2023-03-23T07:41:44;2.47;;;0.90;;
29202;SDS011;16245;51.170;4.884;2023-03-23T07:44:10;4.80;;;1.00;;
29202;SDS011;16245;51.170;4.884;2023-03-23T07:46:36;2.58;;;1.10;;
29202;SDS011;16245;51.170;4.884;2023-03-23T07:49:02;6.35;;;1.73;;
29202;SDS011;16245;51.170;4.884;2023-03-23T07:51:30;2.80;;;0.77;;
29202;SDS011;16245;51.170;4.884;2023-03-23T07:53:57;2.42;;;0.70;;
29202;SDS011;16245;51.170;4.884;2023-03-23T07:56:23;1.92;;;0.73;;
29202;SDS011;16245;51.170;4.884;2023-03-23T07:58:48;2.10;;;0.70;;
29202;SDS011;16245;51.170;4.884;2023-03-23T08:01:14;3.78;;;0.90;;
29202;SDS011;16245;51.170;4.884;2023-03-23T08:03:40;1.85;;;0.90;;
29202;SDS011;16245;51.170;4.884;2023-03-23T08:06:07;3.28;;;0.90;;
29202;SDS011;16245;51.170;4.884;2023-03-23T08:08:33;2.08;;;0.82;;
29202;SDS011;16245;51.170;4.884;2023-03-23T08:11:00;2.75;;;0.90;;
29202;SDS011;16245;51.170;4.884;2023-03-23T08:13:26;2.08;;;0.70;;
29202;SDS011;16245;51.170;4.884;2023-03-23T08:15:51;2.10;;;0.90;;
29202;SDS011;16245;51.170;4.884;2023-03-23T08:18:17;4.63;;;0.85;;
29202;SDS011;16245;51.170;4.884;2023-03-23T08:20:43;3.40;;;1.00;;
29202;SDS011;16245;51.170;4.884;2023-03-23T08:23:09;4.40;;;0.90;;
29202;SDS011;16245;51.170;4.884;2023-03-23T08:25:35;4.38;;;1.13;;
29202;SDS011;16245;51.170;4.884;2023-03-23T08:28:02;3.22;;;0.93;;
29202;SDS011;16245;51.170;4.884;2023-03-23T08:30:28;3.25;;;1.20;;
29202;SDS011;16245;51.170;4.884;2023-03-23T08:32:56;1.27;;;0.80;;
29202;SDS011;16245;51.170;4.884;2023-03-23T08:35:22;3.75;;;1.10;;
29202;SDS011;16245;51.170;4.884;2023-03-23T08:37:49;2.83;;;0.75;;
29202;SDS011;16245;51.170;4.884;2023-03-23T08:40:17;4.22;;;1.63;;
29202;SDS011;16245;51.170;4.884;2023-03-23T08:42:45;3.15;;;0.98;;
29202;SDS011;16245;51.170;4.884;2023-03-23T08:45:13;4.25;;;1.00;;
29202;SDS011;16245;51.170;4.884;2023-03-23T08:47:41;4.95;;;1.20;;
29202;SDS011;16245;51.170;4.884;2023-03-23T08:50:09;3.15;;;1.05;;
29202;SDS011;16245;51.170;4.884;2023-03-23T08:52:39;3.20;;;1.15;;
29202;SDS011;16245;51.170;4.884;2023-03-23T08:55:06;3.28;;;1.20;;
29202;SDS011;16245;51.170;4.884;2023-03-23T08:57:34;2.75;;;1.40;;
29202;SDS011;16245;51.170;4.884;2023-03-23T09:00:01;2.45;;;1.15;;
29202;SDS011;16245;51.170;4.884;2023-03-23T09:02:40;4.75;;;1.30;;
29202;SDS011;16245;51.170;4.884;2023-03-23T09:05:07;3.88;;;1.30;;
29202;SDS011;16245;51.170;4.884;2023-03-23T09:07:35;4.43;;;1.70;;
29202;SDS011;16245;51.170;4.884;2023-03-23T09:10:01;3.65;;;1.70;;
29202;SDS011;16245;51.170;4.884;2023-03-23T09:12:27;2.03;;;1.20;;
29202;SDS011;16245;51.170;4.884;2023-03-23T09:14:53;5.50;;;1.48;;
29202;SDS011;16245;51.170;4.884;2023-03-23T09:17:18;7.35;;;1.60;;
29202;SDS011;16245;51.170;4.884;2023-03-23T09:19:44;4.38;;;1.55;;
29202;SDS011;16245;51.170;4.884;2023-03-23T09:22:11;6.90;;;1.90;;
29202;SDS011;16245;51.170;4.884;2023-03-23T09:24:36;4.80;;;2.03;;
29202;SDS011;16245;51.170;4.884;2023-03-23T09:27:03;5.15;;;1.52;;
29202;SDS011;16245;51.170;4.884;2023-03-23T09:29:29;5.28;;;1.77;;
29202;SDS011;16245;51.170;4.884;2023-03-23T09:31:55;5.35;;;1.90;;
29202;SDS011;16245;51.170;4.884;2023-03-23T09:34:21;3.13;;;1.35;;
29202;SDS011;16245;51.170;4.884;2023-03-23T09:36:47;6.65;;;1.70;;
29202;SDS011;16245;51.170;4.884;2023-03-23T09:39:13;5.88;;;1.85;;
29202;SDS011;16245;51.170;4.884;2023-03-23T09:44:20;4.32;;;1.20;;
29202;SDS011;16245;51.170;4.884;2023-03-23T09:52:04;4.93;;;1.45;;
29202;SDS011;16245;51.170;4.884;2023-03-23T09:54:40;7.13;;;1.63;;
29202;SDS011;16245;51.170;4.884;2023-03-23T09:57:25;7.88;;;2.10;;
29202;SDS011;16245;51.170;4.884;2023-03-23T10:00:09;3.38;;;1.33;;
29202;SDS011;16245;51.170;4.884;2023-03-23T10:02:59;4.47;;;1.48;;
29202;SDS011;16245;51.170;4.884;2023-03-23T10:05:34;5.57;;;1.65;;
29202;SDS011;16245;51.170;4.884;2023-03-23T10:08:00;2.95;;;1.33;;
29202;SDS011;16245;51.170;4.884;2023-03-23T10:13:20;7.35;;;1.50;;
29202;SDS011;16245;51.170;4.884;2023-03-23T10:15:57;3.35;;;1.48;;
29202;SDS011;16245;51.170;4.884;2023-03-23T10:18:30;5.72;;;1.67;;
29202;SDS011;16245;51.170;4.884;2023-03-23T10:21:19;3.78;;;1.27;;
29202;SDS011;16245;51.170;4.884;2023-03-23T10:28:58;4.63;;;1.88;;
29202;SDS011;16245;51.170;4.884;2023-03-23T10:31:39;4.03;;;1.75;;
29202;SDS011;16245;51.170;4.884;2023-03-23T10:34:15;4.82;;;2.50;;
29202;SDS011;16245;51.170;4.884;2023-03-23T10:37:09;2.10;;;1.23;;
29202;SDS011;16245;51.170;4.884;2023-03-23T10:39:50;6.93;;;1.95;;
29202;SDS011;16245;51.170;4.884;2023-03-23T10:42:24;4.00;;;1.58;;
29202;SDS011;16245;51.170;4.884;2023-03-23T10:44:54;5.18;;;1.80;;
29202;SDS011;16245;51.170;4.884;2023-03-23T10:47:22;4.20;;;2.08;;
29202;SDS011;16245;51.170;4.884;2023-03-23T10:49:49;2.60;;;1.75;;
29202;SDS011;16245;51.170;4.884;2023-03-23T10:52:35;3.60;;;2.05;;
29202;SDS011;16245;51.170;4.884;2023-03-23T10:57:37;3.83;;;1.70;;
29202;SDS011;16245;51.170;4.884;2023-03-23T11:00:06;6.30;;;1.75;;
29202;SDS011;16245;51.170;4.884;2023-03-23T11:02:43;4.32;;;2.15;;
29202;SDS011;16245;51.170;4.884;2023-03-23T11:05:23;5.88;;;2.00;;
29202;SDS011;16245;51.170;4.884;2023-03-23T11:07:55;3.75;;;1.60;;
29202;SDS011;16245;51.170;4.884;2023-03-23T11:10:24;3.83;;;1.88;;
29202;SDS011;16245;51.170;4.884;2023-03-23T11:12:52;6.10;;;2.60;;
29202;SDS011;16245;51.170;4.884;2023-03-23T11:15:29;4.90;;;2.00;;
29202;SDS011;16245;51.170;4.884;2023-03-23T11:18:04;4.40;;;1.80;;
29202;SDS011;16245;51.170;4.884;2023-03-23T11:20:36;7.75;;;1.92;;
29202;SDS011;16245;51.170;4.884;2023-03-23T11:23:11;6.85;;;2.40;;
29202;SDS011;16245;51.170;4.884;2023-03-23T11:25:50;6.75;;;2.35;;
29202;SDS011;16245;51.170;4.884;2023-03-23T11:28:37;9.00;;;2.63;;
29202;SDS011;16245;51.170;4.884;2023-03-23T11:31:07;7.72;;;2.92;;
29202;SDS011;16245;51.170;4.884;2023-03-23T11:36:40;6.00;;;2.30;;
29202;SDS011;16245;51.170;4.884;2023-03-23T11:41:48;7.78;;;2.53;;
29202;SDS011;16245;51.170;4.884;2023-03-23T11:44:14;4.15;;;2.17;;
29202;SDS011;16245;51.170;4.884;2023-03-23T11:46:44;8.55;;;2.00;;
29202;SDS011;16245;51.170;4.884;2023-03-23T11:49:22;12.88;;;3.20;;
29202;SDS011;16245;51.170;4.884;2023-03-23T11:52:12;8.32;;;2.50;;
29202;SDS011;16245;51.170;4.884;2023-03-23T11:54:56;5.78;;;2.22;;
29202;SDS011;16245;51.170;4.884;2023-03-23T11:57:33;6.35;;;2.05;;
29202;SDS011;16245;51.170;4.884;2023-03-23T11:59:59;9.63;;;2.72;;
29202;SDS011;16245;51.170;4.884;2023-03-23T12:05:28;9.82;;;2.67;;
29202;SDS011;16245;51.170;4.884;2023-03-23T12:20:06;9.38;;;2.70;;
29202;SDS011;16245;51.170;4.884;2023-03-23T12:28:01;6.03;;;2.60;;
29202;SDS011;16245;51.170;4.884;2023-03-23T12:30:53;7.65;;;2.60;;
29202;SDS011;16245;51.170;4.884;2023-03-23T12:41:33;7.93;;;3.17;;
29202;SDS011;16245;51.170;4.884;2023-03-23T12:44:07;9.10;;;3.13;;
29202;SDS011;16245;51.170;4.884;2023-03-23T12:49:41;9.15;;;2.45;;
29202;SDS011;16245;51.170;4.884;2023-03-23T12:52:29;8.73;;;2.60;;
29202;SDS011;16245;51.170;4.884;2023-03-23T12:55:05;9.43;;;2.33;;
29202;SDS011;16245;51.170;4.884;2023-03-23T12:57:42;7.55;;;2.70;;
29202;SDS011;16245;51.170;4.884;2023-03-23T13:05:44;8.63;;;2.40;;
29202;SDS011;16245;51.170;4.884;2023-03-23T13:08:32;10.10;;;2.42;;
29202;SDS011;16245;51.170;4.884;2023-03-23T13:11:08;5.10;;;2.13;;
29202;SDS011;16245;51.170;4.884;2023-03-23T13:13:49;10.18;;;2.45;;
29202;SDS011;16245;51.170;4.884;2023-03-23T13:19:22;4.55;;;1.70;;
29202;SDS011;16245;51.170;4.884;2023-03-23T13:21:54;7.93;;;2.45;;
29202;SDS011;16245;51.170;4.884;2023-03-23T13:24:28;5.60;;;1.95;;
29202;SDS011;16245;51.170;4.884;2023-03-23T13:26:58;6.10;;;2.22;;
29202;SDS011;16245;51.170;4.884;2023-03-23T13:29:26;6.78;;;2.28;;
29202;SDS011;16245;51.170;4.884;2023-03-23T13:32:03;6.82;;;2.20;;
29202;SDS011;16245;51.170;4.884;2023-03-23T13:34:37;6.72;;;2.40;;
29202;SDS011;16245;51.170;4.884;2023-03-23T13:37:09;9.77;;;3.05;;
29202;SDS011;16245;51.170;4.884;2023-03-23T13:40:25;5.55;;;2.53;;
29202;SDS011;16245;51.170;4.884;2023-03-23T13:42:47;8.27;;;2.00;;
29202;SDS011;16245;51.170;4.884;2023-03-23T13:47:47;8.05;;;2.40;;
29202;SDS011;16245;51.170;4.884;2023-03-23T14:05:38;6.82;;;2.30;;
29202;SDS011;16245;51.170;4.884;2023-03-23T14:13:30;7.55;;;2.83;;
29202;SDS011;16245;51.170;4.884;2023-03-23T14:16:25;9.63;;;2.47;;
29202;SDS011;16245;51.170;4.884;2023-03-23T14:18:56;6.55;;;1.88;;
29202;SDS011;16245;51.170;4.884;2023-03-23T14:21:34;6.47;;;2.08;;
29202;SDS011;16245;51.170;4.884;2023-03-23T14:24:11;7.07;;;2.72;;
29202;SDS011;16245;51.170;4.884;2023-03-23T14:26:41;10.23;;;2.70;;
29202;SDS011;16245;51.170;4.884;2023-03-23T14:29:11;7.25;;;2.45;;
29202;SDS011;16245;51.170;4.884;2023-03-23T14:31:38;7.82;;;2.22;;
29202;SDS011;16245;51.170;4.884;2023-03-23T14:34:15;7.50;;;2.47;;
29202;SDS011;16245;51.170;4.884;2023-03-23T14:36:44;9.15;;;2.17;;
29202;SDS011;16245;51.170;4.884;2023-03-23T14:41:56;6.40;;;2.13;;
29202;SDS011;16245;51.170;4.884;2023-03-23T14:44:48;8.85;;;2.55;;
29202;SDS011;16245;51.170;4.884;2023-03-23T14:47:25;4.05;;;1.85;;
29202;SDS011;16245;51.170;4.884;2023-03-23T14:49:57;10.40;;;2.47;;
29202;SDS011;16245;51.170;4.884;2023-03-23T14:52:26;8.05;;;2.47;;
29202;SDS011;16245;51.170;4.884;2023-03-23T14:54:53;7.82;;;2.13;;
29202;SDS011;16245;51.170;4.884;2023-03-23T14:57:25;6.28;;;2.25;;
29202;SDS011;16245;51.170;4.884;2023-03-23T14:59:54;8.45;;;2.67;;
29202;SDS011;16245;51.170;4.884;2023-03-23T15:04:53;5.45;;;1.63;;
29202;SDS011;16245;51.170;4.884;2023-03-23T15:07:35;5.43;;;2.00;;
29202;SDS011;16245;51.170;4.884;2023-03-23T15:10:06;6.70;;;2.20;;
29202;SDS011;16245;51.170;4.884;2023-03-23T15:12:33;5.28;;;2.30;;
29202;SDS011;16245;51.170;4.884;2023-03-23T15:15:04;7.70;;;2.00;;
29202;SDS011;16245;51.170;4.884;2023-03-23T15:17:36;7.05;;;2.10;;
29202;SDS011;16245;51.170;4.884;2023-03-23T15:20:10;6.45;;;2.22;;
29202;SDS011;16245;51.170;4.884;2023-03-23T15:22:46;11.32;;;3.28;;
29202;SDS011;16245;51.170;4.884;2023-03-23T15:25:20;11.15;;;3.00;;
29202;SDS011;16245;51.170;4.884;2023-03-23T15:27:56;7.57;;;2.50;;
29202;SDS011;16245;51.170;4.884;2023-03-23T15:30:37;10.05;;;2.55;;
29202;SDS011;16245;51.170;4.884;2023-03-23T15:33:25;8.52;;;2.33;;
29202;SDS011;16245;51.170;4.884;2023-03-23T15:35:55;7.13;;;2.38;;
29202;SDS011;16245;51.170;4.884;2023-03-23T15:38:31;12.55;;;3.13;;
29202;SDS011;16245;51.170;4.884;2023-03-23T15:41:00;9.90;;;3.45;;
29202;SDS011;16245;51.170;4.884;2023-03-23T15:43:32;11.27;;;3.55;;
29202;SDS011;16245;51.170;4.884;2023-03-23T15:46:01;9.00;;;3.33;;
29202;SDS011;16245;51.170;4.884;2023-03-23T15:48:31;10.48;;;3.45;;
29202;SDS011;16245;51.170;4.884;2023-03-23T15:50:58;9.65;;;3.20;;
29202;SDS011;16245;51.170;4.884;2023-03-23T15:55:53;11.25;;;4.45;;
29202;SDS011;16245;51.170;4.884;2023-03-23T15:58:19;12.82;;;3.75;;
29202;SDS011;16245;51.170;4.884;2023-03-23T16:00:45;10.63;;;3.20;;
29202;SDS011;16245;51.170;4.884;2023-03-23T16:03:17;13.30;;;3.17;;
29202;SDS011;16245;51.170;4.884;2023-03-23T16:05:49;8.55;;;3.63;;
29202;SDS011;16245;51.170;4.884;2023-03-23T16:08:15;11.93;;;3.72;;
29202;SDS011;16245;51.170;4.884;2023-03-23T16:10:40;9.55;;;3.10;;
29202;SDS011;16245;51.170;4.884;2023-03-23T16:13:06;11.27;;;3.67;;
29202;SDS011;16245;51.170;4.884;2023-03-23T16:15:32;16.02;;;4.65;;
29202;SDS011;16245;51.170;4.884;2023-03-23T16:17:58;9.57;;;3.67;;
29202;SDS011;16245;51.170;4.884;2023-03-23T16:20:23;12.15;;;4.03;;
29202;SDS011;16245;51.170;4.884;2023-03-23T16:22:50;13.63;;;3.55;;
29202;SDS011;16245;51.170;4.884;2023-03-23T16:25:17;14.10;;;3.90;;
29202;SDS011;16245;51.170;4.884;2023-03-23T16:27:43;11.15;;;3.50;;
29202;SDS011;16245;51.170;4.884;2023-03-23T16:32:47;11.57;;;3.15;;
29202;SDS011;16245;51.170;4.884;2023-03-23T16:35:13;12.25;;;3.85;;
29202;SDS011;16245;51.170;4.884;2023-03-23T16:37:46;6.10;;;2.88;;
29202;SDS011;16245;51.170;4.884;2023-03-23T16:40:15;9.45;;;3.08;;
29202;SDS011;16245;51.170;4.884;2023-03-23T16:42:42;9.45;;;2.90;;
29202;SDS011;16245;51.170;4.884;2023-03-23T16:45:08;6.05;;;3.47;;
29202;SDS011;16245;51.170;4.884;2023-03-23T16:47:34;9.25;;;3.05;;
29202;SDS011;16245;51.170;4.884;2023-03-23T16:50:01;11.10;;;3.38;;
29202;SDS011;16245;51.170;4.884;2023-03-23T16:52:27;8.52;;;3.78;;
29202;SDS011;16245;51.170;4.884;2023-03-23T16:54:52;8.40;;;3.42;;
29202;SDS011;16245;51.170;4.884;2023-03-23T16:57:18;13.73;;;3.78;;
29202;SDS011;16245;51.170;4.884;2023-03-23T16:59:44;12.52;;;3.33;;
29202;SDS011;16245;51.170;4.884;2023-03-23T17:02:10;16.05;;;4.20;;
29202;SDS011;16245;51.170;4.884;2023-03-23T17:04:40;8.63;;;4.30;;